createdAt,value
2024-01-07T00:01:47.938Z,99238.84
2024-01-07T00:04:17.496Z,99239.69
2024-01-07T00:06:44.840Z,99240.56
2024-01-07T00:09:12.401Z,99247.19
2024-01-07T00:11:39.765Z,99245.50
2024-01-07T00:14:07.081Z,99245.34
2024-01-07T00:16:34.381Z,99245.88
2024-01-07T00:19:01.769Z,99241.72
2024-01-07T00:21:30.582Z,99247.78
2024-01-07T00:23:57.861Z,99254.28
2024-01-07T00:26:25.128Z,99251.34
2024-01-07T00:28:52.423Z,99259.59
2024-01-07T00:31:19.788Z,99258.22
2024-01-07T00:33:47.246Z,99253.97
2024-01-07T00:36:14.549Z,99257.81
2024-01-07T00:38:43.231Z,99262.63
2024-01-07T00:41:10.519Z,99264.19
2024-01-07T00:43:37.794Z,99261.16
2024-01-07T00:46:05.552Z,99258.28
2024-01-07T00:48:33.255Z,99274.47
2024-01-07T00:51:01.305Z,99274.19
2024-01-07T00:53:28.556Z,99274.91
2024-01-07T00:55:58.237Z,99268.09
2024-01-07T00:58:25.538Z,99270.03
2024-01-07T01:00:52.853Z,99275.28
2024-01-07T01:03:20.294Z,99282.22
2024-01-07T01:05:47.801Z,99283.22
2024-01-07T01:08:15.116Z,99279.53
2024-01-07T01:10:43.879Z,99277.34
2024-01-07T01:13:12.594Z,99286.13
2024-01-07T01:15:39.975Z,99288.69
2024-01-07T01:18:07.362Z,99287.81
2024-01-07T01:20:34.695Z,99300.50
2024-01-07T01:23:02.025Z,99295.94
2024-01-07T01:25:29.304Z,99290.38
2024-01-07T01:27:57.130Z,99298.03
2024-01-07T01:30:25.928Z,99302.13
2024-01-07T01:32:53.451Z,99300.75
2024-01-07T01:35:20.789Z,99297.09
2024-01-07T01:37:48.053Z,99305.41
2024-01-07T01:40:17.330Z,99298.63
2024-01-07T01:42:45.109Z,99301.66
2024-01-07T01:45:12.447Z,99307.44
2024-01-07T01:47:41.398Z,99311.88
2024-01-07T01:50:09.407Z,99308.50
2024-01-07T01:52:36.794Z,99308.94
2024-01-07T01:55:05.212Z,99307.09
2024-01-07T01:57:35.058Z,99307.41
2024-01-07T02:00:03.916Z,99315.78
2024-01-07T02:02:32.880Z,99313.56
2024-01-07T02:05:01.740Z,99317.66
2024-01-07T02:07:31.257Z,99316.34
2024-01-07T02:09:58.649Z,99324.03
2024-01-07T02:12:26.070Z,99319.63
2024-01-07T02:14:53.372Z,99325.44
2024-01-07T02:17:21.175Z,99318.97
2024-01-07T02:19:48.945Z,99327.84
2024-01-07T02:22:17.768Z,99329.00
2024-01-07T02:24:46.456Z,99328.75
2024-01-07T02:27:13.800Z,99338.50
2024-01-07T02:29:41.101Z,99332.84
2024-01-07T02:32:09.174Z,99334.16
2024-01-07T02:34:36.496Z,99330.16
2024-01-07T02:37:04.267Z,99337.84
2024-01-07T02:39:31.654Z,99337.84
2024-01-07T02:42:00.340Z,99333.53
2024-01-07T02:44:27.627Z,99334.84
2024-01-07T02:46:54.940Z,99334.56
2024-01-07T02:49:22.336Z,99329.78
2024-01-07T02:51:49.679Z,99339.72
2024-01-07T02:54:17.286Z,99337.63
2024-01-07T02:56:44.536Z,99341.47
2024-01-07T02:59:13.255Z,99341.38
2024-01-07T03:01:40.601Z,99345.19
2024-01-07T03:04:08.341Z,99344.06
2024-01-07T03:06:35.696Z,99351.28
2024-01-07T03:09:03.164Z,99337.13
2024-01-07T03:11:30.678Z,99349.47
2024-01-07T03:13:58.077Z,99348.88
2024-01-07T03:16:27.374Z,99349.75
2024-01-07T03:18:54.734Z,99338.72
2024-01-07T03:21:23.796Z,99340.13
2024-01-07T03:23:52.330Z,99338.94
2024-01-07T03:26:20.748Z,99346.91
2024-01-07T03:28:48.173Z,99340.25
2024-01-07T03:31:17.190Z,99361.00
2024-01-07T03:33:46.178Z,99348.50
2024-01-07T03:36:14.993Z,99347.53
2024-01-07T03:38:42.573Z,99343.00
2024-01-07T03:41:09.904Z,99350.38
2024-01-07T03:43:37.185Z,99356.78
2024-01-07T03:46:04.596Z,99342.75
2024-01-07T03:48:32.091Z,99348.09
2024-01-07T03:51:00.805Z,99352.94
2024-01-07T03:53:28.080Z,99352.66
2024-01-07T03:55:55.359Z,99360.75
2024-01-07T03:58:22.630Z,99360.34
2024-01-07T04:00:50.001Z,99364.03
2024-01-07T04:03:17.558Z,99360.91
2024-01-07T04:05:45.130Z,99366.88
2024-01-07T04:08:13.847Z,99375.81
2024-01-07T04:10:41.122Z,99382.47
2024-01-07T04:13:08.551Z,99378.22
2024-01-07T04:15:35.912Z,99391.28
2024-01-07T04:18:03.407Z,99395.81
2024-01-07T04:20:30.705Z,99396.22
2024-01-07T04:22:58.181Z,99390.00
2024-01-07T04:25:26.878Z,99398.22
2024-01-07T04:27:54.210Z,99400.47
2024-01-07T04:30:21.584Z,99401.75
2024-01-07T04:32:48.981Z,99421.16
2024-01-07T04:35:16.328Z,99410.94
2024-01-07T04:37:43.676Z,99418.44
2024-01-07T04:40:12.236Z,99410.50
2024-01-07T04:42:40.976Z,99425.84
2024-01-07T04:45:08.937Z,99423.97
2024-01-07T04:47:36.248Z,99433.63
2024-01-07T04:50:04.685Z,99431.94
2024-01-07T04:52:31.977Z,99434.09
2024-01-07T04:54:59.397Z,99424.28
2024-01-07T04:57:26.761Z,99432.66
2024-01-07T04:59:55.554Z,99445.81
2024-01-07T05:02:22.833Z,99438.09
2024-01-07T05:04:50.091Z,99450.03
2024-01-07T05:07:17.493Z,99441.66
2024-01-07T05:09:44.861Z,99458.22
2024-01-07T05:12:12.226Z,99451.22
2024-01-07T05:14:39.509Z,99464.81
2024-01-07T05:17:08.174Z,99466.75
2024-01-07T05:19:35.521Z,99461.44
2024-01-07T05:22:02.908Z,99482.50
2024-01-07T05:24:31.758Z,99481.81
2024-01-07T05:27:00.237Z,99478.13
2024-01-07T05:29:27.511Z,99481.34
2024-01-07T05:31:54.786Z,99489.16
2024-01-07T05:34:23.562Z,99484.31
2024-01-07T05:36:50.988Z,99487.38
2024-01-07T05:39:18.250Z,99498.25
2024-01-07T05:41:45.517Z,99500.94
2024-01-07T05:44:13.372Z,99504.47
2024-01-07T05:46:40.975Z,99509.88
2024-01-07T05:49:09.325Z,99504.72
2024-01-07T05:51:41.173Z,99507.66
2024-01-07T05:54:08.613Z,99521.97
2024-01-07T05:56:39.812Z,99525.38
2024-01-07T05:59:07.270Z,99526.69
2024-01-07T06:01:34.711Z,99528.72
2024-01-07T06:04:02.063Z,99535.56
2024-01-07T06:06:29.641Z,99545.41
2024-01-07T06:08:58.486Z,99543.16
2024-01-07T06:11:25.768Z,99546.84
2024-01-07T06:13:53.031Z,99553.84
2024-01-07T06:16:20.309Z,99559.09
2024-01-07T06:18:47.712Z,99572.66
2024-01-07T06:21:15.112Z,99564.59
2024-01-07T06:23:42.369Z,99564.63
2024-01-07T06:26:11.014Z,99587.88
2024-01-07T06:28:38.363Z,99560.47
2024-01-07T06:31:05.839Z,99579.94
2024-01-07T06:33:33.483Z,99571.94
2024-01-07T06:36:01.275Z,99579.75
2024-01-07T06:38:28.551Z,99596.19
2024-01-07T06:40:58.508Z,99601.78
2024-01-07T06:43:29.006Z,99600.03
2024-01-07T06:45:56.669Z,99604.59
2024-01-07T06:48:24.037Z,99599.09
2024-01-07T06:50:51.376Z,99602.63
2024-01-07T06:53:18.778Z,99606.09
2024-01-07T06:55:46.084Z,99622.97
2024-01-07T06:58:13.404Z,99621.13
2024-01-07T07:00:42.180Z,99625.16
2024-01-07T07:03:09.776Z,99632.97
2024-01-07T07:05:37.126Z,99627.13
2024-01-07T07:08:05.040Z,99622.38
2024-01-07T07:10:32.314Z,99633.28
2024-01-07T07:12:59.633Z,99640.34
2024-01-07T07:15:26.965Z,99654.03
2024-01-07T07:17:56.006Z,99665.66
2024-01-07T07:20:23.360Z,99662.72
2024-01-07T07:22:50.620Z,99654.91
2024-01-07T07:25:17.953Z,99660.03
2024-01-07T07:27:45.364Z,99668.59
2024-01-07T07:30:12.974Z,99670.69
2024-01-07T07:32:40.965Z,99688.88
2024-01-07T07:35:09.836Z,99679.34
2024-01-07T07:37:37.128Z,99676.31
2024-01-07T07:40:05.389Z,99672.25
2024-01-07T07:42:32.817Z,99683.72
2024-01-07T07:45:00.222Z,99681.53
2024-01-07T07:47:27.624Z,99688.03
2024-01-07T07:49:55.042Z,99693.53
2024-01-07T07:52:23.781Z,99699.25
2024-01-07T07:54:51.148Z,99696.53
2024-01-07T07:57:18.580Z,99706.31
2024-01-07T07:59:45.869Z,99712.81
2024-01-07T08:02:13.557Z,99708.66
2024-01-07T08:04:40.860Z,99724.31
2024-01-07T08:07:08.285Z,99726.25
2024-01-07T08:09:37.219Z,99734.19
2024-01-07T08:12:05.474Z,99739.66
2024-01-07T08:14:33.510Z,99728.19
2024-01-07T08:17:00.787Z,99735.16
2024-01-07T08:19:28.149Z,99748.81
2024-01-07T08:21:55.469Z,99737.47
2024-01-07T08:24:22.746Z,99736.84
2024-01-07T08:26:51.423Z,99745.72
2024-01-07T08:29:18.761Z,99756.47
2024-01-07T08:31:46.139Z,99754.91
2024-01-07T08:34:13.544Z,99751.97
2024-01-07T08:36:40.881Z,99753.34
2024-01-07T08:39:08.275Z,99756.25
2024-01-07T08:41:35.530Z,99750.59
2024-01-07T08:44:04.356Z,99756.47
2024-01-07T08:46:31.628Z,99757.25
2024-01-07T08:48:59.070Z,99763.25
2024-01-07T08:51:26.874Z,99773.13
2024-01-07T08:54:31.381Z,99771.91
2024-01-07T08:57:01.577Z,99767.50
2024-01-07T08:59:30.143Z,99777.13
2024-01-07T09:01:57.420Z,99777.47
2024-01-07T09:04:24.753Z,99782.50
2024-01-07T09:06:52.036Z,99780.25
2024-01-07T09:09:19.335Z,99798.78
2024-01-07T09:11:46.666Z,99785.63
2024-01-07T09:14:13.983Z,99796.91
2024-01-07T09:16:42.622Z,99810.00
2024-01-07T09:19:11.591Z,99816.28
2024-01-07T09:21:40.940Z,99813.03
2024-01-07T09:24:08.335Z,99831.09
2024-01-07T09:26:35.668Z,99823.75
2024-01-07T09:29:02.964Z,99832.47
2024-01-07T09:31:30.363Z,99825.50
2024-01-07T09:33:59.133Z,99834.06
2024-01-07T09:36:30.289Z,99830.28
2024-01-07T09:38:58.353Z,99843.53
2024-01-07T09:41:26.306Z,99834.06
2024-01-07T09:43:54.002Z,99847.31
